Hauptseite
METAR-TAF:

METAR-TAF

Flughäfen :

Nancy, Frankreich

Breite: 48-41N, Länge: 006-13E, Höhe: 225 m

Beobachtung

Neuester Wetterbericht von vor 28 Minuten, um 08:30 UTC
Wind 10 kt aus Süd
Temperatur 9°C
Luftfeuchtigkeit 71%
Luftdruck 1008 hPa
Sichtweite 10 km oder mehr
Aufgelockert bewölkt in der Höhe von 4300 ft

METAR: LFSN 270830Z AUTO 17010KT 9999 SCT043 09/04 Q1008

Zeit: 09:58 (08:58 UTC)


TAF: fehlend

Wetterbeobachtungen und Prognosen von mehr als 4000 Flughäfen (METAR und TAF Bericht).

Die verfügbaren Stationen werden durch gelbe und rote Markierungen auf der Karte dargestellt.

Führen Sie die Maus auf sie, um den Namen der Station zu sehen.

Darauf klicken, um die Beobachtung von Wetterbeobachtungen und Prognosen zu sehen.

Um die Karte zu ändern : klicken Sie auf den grünen Tasten mit einem schwarzen Kreuz Zum Vergrößern, auf den grünen Button mit einem Gedankenstrich zu verkleinern, oder auf die grünen Pfeile für benachbarte Karten.


METAR-TAF: